SAS605 ESSA-LSZH
Flight info
| Callsign | SAS605 |
|---|---|
| Flight time | N/A |
| Altitude | FL380 |
| Route | NOSLI N850 TONSA DCT VEPIP DCT BALOX M736 BARAP DCT TESDU DCT TEDGO T724 RILAX |
| Aircraft | B738/M-S/N |
Departure
| Time | N/A |
|---|---|
| Airport | Stockholm-Arlanda Airport (ESSA) |
Arrival
| Time | 2026-05-01 08:19 |
|---|---|
| Airport | Zürich Airport (LSZH) |
| Time | Latitude | Longitude | Altitude | Speed | Heading |
|---|---|---|---|---|---|
| 2026-05-01 07:23 | 52.25852 | 11.83960 | 38064 ft | 453 kts | 185° |
| 2026-05-01 07:24 | 52.16466 | 11.82339 | 38073 ft | 453 kts | 185° |
| 2026-05-01 07:24 | 52.10211 | 11.81265 | 38071 ft | 453 kts | 185° |
| 2026-05-01 07:25 | 52.03950 | 11.80192 | 38071 ft | 453 kts | 185° |
| 2026-05-01 07:25 | 51.97756 | 11.78473 | 38080 ft | 454 kts | 197° |
| 2026-05-01 07:26 | 51.91835 | 11.74981 | 38074 ft | 454 kts | 199° |
| 2026-05-01 07:26 | 51.85906 | 11.71538 | 38071 ft | 451 kts | 200° |
| 2026-05-01 07:27 | 51.80361 | 11.66900 | 38073 ft | 451 kts | 210° |
| 2026-05-01 07:27 | 51.74805 | 11.62265 | 38067 ft | 451 kts | 207° |
| 2026-05-01 07:28 | 51.69232 | 11.57669 | 38068 ft | 451 kts | 207° |
| 2026-05-01 07:28 | 51.63659 | 11.53081 | 38077 ft | 450 kts | 207° |
| 2026-05-01 07:29 | 51.58090 | 11.48508 | 38075 ft | 451 kts | 207° |
| 2026-05-01 07:29 | 51.52488 | 11.43921 | 38072 ft | 456 kts | 207° |
| 2026-05-01 07:30 | 51.46852 | 11.39317 | 38069 ft | 456 kts | 207° |
| 2026-05-01 07:30 | 51.41218 | 11.34729 | 38069 ft | 455 kts | 207° |
| 2026-05-01 07:31 | 51.35580 | 11.30150 | 38070 ft | 455 kts | 206° |
| 2026-05-01 07:32 | 51.21480 | 11.18755 | 38082 ft | 455 kts | 206° |
| 2026-05-01 07:33 | 51.13022 | 11.11957 | 38088 ft | 455 kts | 206° |
| 2026-05-01 07:33 | 51.04554 | 11.05180 | 38093 ft | 455 kts | 206° |
| 2026-05-01 07:34 | 50.96078 | 10.98423 | 38095 ft | 455 kts | 206° |
| 2026-05-01 07:35 | 50.90430 | 10.93936 | 38095 ft | 455 kts | 206° |
| 2026-05-01 07:35 | 50.84781 | 10.89461 | 38095 ft | 455 kts | 206° |
| 2026-05-01 07:36 | 50.79127 | 10.84994 | 38094 ft | 455 kts | 206° |
| 2026-05-01 07:36 | 50.73478 | 10.80543 | 38087 ft | 455 kts | 206° |
| 2026-05-01 07:37 | 50.64989 | 10.73877 | 38095 ft | 455 kts | 206° |
| 2026-05-01 07:37 | 50.59334 | 10.69451 | 38059 ft | 455 kts | 206° |
| 2026-05-01 07:38 | 50.53707 | 10.65059 | 38052 ft | 452 kts | 206° |
| 2026-05-01 07:39 | 50.45237 | 10.58471 | 38055 ft | 461 kts | 205° |
| 2026-05-01 07:39 | 50.36588 | 10.51770 | 38042 ft | 463 kts | 205° |
| 2026-05-01 07:40 | 50.30822 | 10.47318 | 38040 ft | 463 kts | 205° |
| 2026-05-01 07:40 | 50.25049 | 10.42873 | 38040 ft | 463 kts | 205° |
| 2026-05-01 07:41 | 50.19269 | 10.38456 | 38039 ft | 463 kts | 204° |
| 2026-05-01 07:42 | 50.10648 | 10.32096 | 38039 ft | 456 kts | 205° |
| 2026-05-01 07:42 | 50.04930 | 10.27882 | 38036 ft | 456 kts | 205° |
| 2026-05-01 07:43 | 49.99214 | 10.23681 | 38036 ft | 456 kts | 205° |
| 2026-05-01 07:43 | 49.90633 | 10.17394 | 38033 ft | 456 kts | 205° |
| 2026-05-01 07:44 | 49.79190 | 10.09050 | 38029 ft | 456 kts | 204° |
| 2026-05-01 07:45 | 49.73463 | 10.04890 | 38023 ft | 456 kts | 204° |
| 2026-05-01 07:45 | 49.67855 | 10.00827 | 38011 ft | 440 kts | 204° |
| 2026-05-01 07:46 | 49.62333 | 9.96837 | 38008 ft | 439 kts | 204° |
| 2026-05-01 07:47 | 49.54055 | 9.90874 | 38013 ft | 439 kts | 204° |
| 2026-05-01 07:47 | 49.48515 | 9.86896 | 38017 ft | 444 kts | 204° |
| 2026-05-01 07:48 | 49.40119 | 9.80885 | 38007 ft | 445 kts | 204° |
| 2026-05-01 07:48 | 49.34516 | 9.76887 | 38006 ft | 445 kts | 204° |
| 2026-05-01 07:49 | 49.26115 | 9.70910 | 38007 ft | 445 kts | 204° |
| 2026-05-01 07:50 | 49.20513 | 9.66938 | 38007 ft | 445 kts | 204° |
| 2026-05-01 07:50 | 49.12103 | 9.60992 | 38007 ft | 445 kts | 204° |
| 2026-05-01 07:51 | 49.06501 | 9.57045 | 38006 ft | 445 kts | 204° |
| 2026-05-01 07:52 | 48.98089 | 9.51135 | 38002 ft | 445 kts | 204° |
| 2026-05-01 07:52 | 48.92475 | 9.47204 | 37995 ft | 445 kts | 203° |
| 2026-05-01 07:53 | 48.84156 | 9.41396 | 37993 ft | 436 kts | 204° |
| 2026-05-01 07:53 | 48.78658 | 9.37569 | 37987 ft | 436 kts | 204° |
| 2026-05-01 07:55 | 48.64989 | 9.28095 | 36699 ft | 429 kts | 204° |
| 2026-05-01 07:55 | 48.59841 | 9.23706 | 35441 ft | 425 kts | 216° |
| 2026-05-01 07:56 | 48.52788 | 9.15783 | 33581 ft | 420 kts | 217° |
| 2026-05-01 07:56 | 48.48131 | 9.10583 | 32327 ft | 416 kts | 217° |
| 2026-05-01 07:57 | 48.45814 | 9.08003 | 31691 ft | 414 kts | 216° |
| 2026-05-01 07:57 | 48.41205 | 9.02874 | 30417 ft | 411 kts | 216° |
| 2026-05-01 07:58 | 48.36634 | 8.97803 | 29148 ft | 407 kts | 216° |
| 2026-05-01 07:58 | 48.32107 | 8.92790 | 27876 ft | 403 kts | 216° |
| 2026-05-01 07:59 | 48.27639 | 8.87821 | 26607 ft | 399 kts | 216° |
| 2026-05-01 07:59 | 48.23222 | 8.82910 | 25339 ft | 393 kts | 216° |
| 2026-05-01 08:00 | 48.14551 | 8.73344 | 22811 ft | 382 kts | 215° |
| 2026-05-01 08:01 | 48.08202 | 8.66432 | 20925 ft | 372 kts | 215° |
| 2026-05-01 08:01 | 48.06127 | 8.64176 | 20299 ft | 368 kts | 215° |
| 2026-05-01 08:01 | 48.04065 | 8.61938 | 19671 ft | 365 kts | 215° |
| 2026-05-01 08:02 | 48.00009 | 8.57543 | 18419 ft | 358 kts | 215° |
| 2026-05-01 08:02 | 47.97999 | 8.55399 | 17785 ft | 354 kts | 212° |
| 2026-05-01 08:03 | 47.93413 | 8.53944 | 16498 ft | 336 kts | 168° |
| 2026-05-01 08:03 | 47.91283 | 8.55118 | 16019 ft | 321 kts | 149° |
| 2026-05-01 08:03 | 47.87905 | 8.59061 | 15138 ft | 302 kts | 136° |
| 2026-05-01 08:04 | 47.84742 | 8.62972 | 14231 ft | 293 kts | 137° |
| 2026-05-01 08:04 | 47.81591 | 8.66805 | 13347 ft | 293 kts | 138° |
| 2026-05-01 08:05 | 47.78435 | 8.70631 | 12467 ft | 293 kts | 138° |
| 2026-05-01 08:05 | 47.76857 | 8.72542 | 12027 ft | 293 kts | 138° |
| 2026-05-01 08:05 | 47.75282 | 8.74447 | 11588 ft | 293 kts | 139° |
| 2026-05-01 08:06 | 47.72140 | 8.78245 | 10721 ft | 291 kts | 139° |
| 2026-05-01 08:06 | 47.69093 | 8.81920 | 10203 ft | 275 kts | 139° |
| 2026-05-01 08:07 | 47.66184 | 8.85424 | 9700 ft | 265 kts | 139° |
| 2026-05-01 08:07 | 47.63329 | 8.88857 | 9000 ft | 265 kts | 139° |
| 2026-05-01 08:08 | 47.61817 | 8.90405 | 8593 ft | 268 kts | 152° |
| 2026-05-01 08:08 | 47.58161 | 8.90585 | 7834 ft | 273 kts | 198° |
| 2026-05-01 08:09 | 47.55981 | 8.86283 | 7060 ft | 275 kts | 264° |
| 2026-05-01 08:09 | 47.56289 | 8.83559 | 6870 ft | 266 kts | 288° |
| 2026-05-01 08:09 | 47.56955 | 8.81052 | 6658 ft | 261 kts | 294° |
| 2026-05-01 08:10 | 47.58239 | 8.76114 | 6155 ft | 255 kts | 287° |
| 2026-05-01 08:10 | 47.58872 | 8.71016 | 5660 ft | 250 kts | 276° |
| 2026-05-01 08:11 | 47.59156 | 8.65937 | 5162 ft | 247 kts | 273° |
| 2026-05-01 08:11 | 47.59923 | 8.61096 | 4596 ft | 246 kts | 303° |
| 2026-05-01 08:12 | 47.62202 | 8.57404 | 4170 ft | 242 kts | 313° |
| 2026-05-01 08:12 | 47.63356 | 8.55605 | 4010 ft | 239 kts | 313° |
| 2026-05-01 08:12 | 47.65657 | 8.52017 | 4012 ft | 241 kts | 313° |
| 2026-05-01 08:13 | 47.66706 | 8.50092 | 3985 ft | 241 kts | 299° |
| 2026-05-01 08:13 | 47.67067 | 8.47704 | 4007 ft | 240 kts | 269° |
| 2026-05-01 08:13 | 47.65600 | 8.43417 | 4021 ft | 237 kts | 230° |
| 2026-05-01 08:14 | 47.64550 | 8.41539 | 4008 ft | 237 kts | 230° |
| 2026-05-01 08:14 | 47.63499 | 8.39660 | 4004 ft | 237 kts | 229° |
| 2026-05-01 08:14 | 47.62213 | 8.38241 | 3978 ft | 227 kts | 203° |
| 2026-05-01 08:14 | 47.60700 | 8.38014 | 4010 ft | 218 kts | 175° |
| 2026-05-01 08:15 | 47.59263 | 8.38558 | 4011 ft | 211 kts | 158° |
| 2026-05-01 08:15 | 47.57093 | 8.41285 | 3853 ft | 199 kts | 133° |
| 2026-05-01 08:15 | 47.56154 | 8.42746 | 3568 ft | 193 kts | 135° |
| 2026-05-01 08:16 | 47.55216 | 8.44072 | 3274 ft | 181 kts | 138° |
| 2026-05-01 08:16 | 47.54305 | 8.45297 | 3023 ft | 172 kts | 139° |
| 2026-05-01 08:16 | 47.53448 | 8.46450 | 2843 ft | 163 kts | 139° |
| 2026-05-01 08:16 | 47.52636 | 8.47558 | 2643 ft | 156 kts | 138° |
| 2026-05-01 08:17 | 47.51855 | 8.48630 | 2411 ft | 152 kts | 137° |
| 2026-05-01 08:17 | 47.51080 | 8.49691 | 2218 ft | 152 kts | 137° |
| 2026-05-01 08:17 | 47.50305 | 8.50749 | 2023 ft | 152 kts | 136° |
| 2026-05-01 08:17 | 47.49526 | 8.51807 | 1808 ft | 153 kts | 136° |
| 2026-05-01 08:18 | 47.48748 | 8.52880 | 1607 ft | 154 kts | 135° |
| 2026-05-01 08:18 | 47.47258 | 8.54908 | 1427 ft | 113 kts | 137° |
| 2026-05-01 08:19 | 47.46665 | 8.55652 | 1427 ft | 21 kts | 162° |
| 2026-05-01 08:19 | 47.46534 | 8.55699 | 1427 ft | 18 kts | 167° |
| 2026-05-01 08:19 | 47.46451 | 8.55728 | 1427 ft | 11 kts | 166° |
| 2026-05-01 08:19 | 47.46386 | 8.55766 | 1427 ft | 14 kts | 145° |
| 2026-05-01 08:20 | 47.46296 | 8.55881 | 1427 ft | 16 kts | 137° |
| 2026-05-01 08:20 | 47.46218 | 8.55983 | 1427 ft | 15 kts | 150° |
| 2026-05-01 08:20 | 47.46104 | 8.55993 | 1427 ft | 17 kts | 186° |
| 2026-05-01 08:20 | 47.45990 | 8.55975 | 1427 ft | 18 kts | 188° |
| 2026-05-01 08:21 | 47.45886 | 8.55928 | 1427 ft | 14 kts | 199° |
| 2026-05-01 08:21 | 47.45777 | 8.55881 | 1427 ft | 16 kts | 188° |
| 2026-05-01 08:21 | 47.45656 | 8.55859 | 1427 ft | 18 kts | 186° |
| 2026-05-01 08:21 | 47.45537 | 8.55836 | 1427 ft | 15 kts | 210° |
| 2026-05-01 08:22 | 47.45515 | 8.55672 | 1427 ft | 18 kts | 275° |
| 2026-05-01 08:22 | 47.45524 | 8.55497 | 1427 ft | 15 kts | 255° |
| 2026-05-01 08:22 | 47.45452 | 8.55402 | 1427 ft | 17 kts | 209° |
| 2026-05-01 08:22 | 47.45334 | 8.55418 | 1427 ft | 17 kts | 154° |
| 2026-05-01 08:23 | 47.45208 | 8.55506 | 1427 ft | 19 kts | 155° |
| 2026-05-01 08:23 | 47.45097 | 8.55582 | 1427 ft | 16 kts | 155° |
| 2026-05-01 08:23 | 47.45006 | 8.55645 | 1427 ft | 13 kts | 155° |
| 2026-05-01 08:23 | 47.44961 | 8.55712 | 1427 ft | 10 kts | 98° |
| 2026-05-01 08:24 | 47.44953 | 8.55804 | 1427 ft | 7 kts | 97° |
| 2026-05-01 08:24 | 47.44973 | 8.55852 | 1427 ft | 4 kts | 1° |
| 2026-05-01 08:24 | 47.45005 | 8.55855 | 1427 ft | 4 kts | 5° |
| 2026-05-01 08:24 | 47.45035 | 8.55859 | 1427 ft | 4 kts | 6° |
| 2026-05-01 08:25 | 47.45040 | 8.55860 | 1427 ft | 0 kts | 6° |